Bookmark and Share
Track history (hours):
 

Manoa

More information available from US FCC via Universal Licensing System and Coast Guard Vessel Documentation Center.

Last reported at 2014-Apr-23 04:33 UTC. Time now 2014-Apr-24 01:51 UTC.
Position N 37°29' W 123°22'.

Type: Cargo ship. MMSI: 366562000.

NotesDate/timePositionNaut miles runAvg speedWind from/ knotsBaromVisibWave heightAir tempDewpointWater temp
2014-Apr-23 04:33N 37°29' W 123°22'1716.8
2014-Apr-23 03:34N 37°35' W 123°03'1717.0
2014-Apr-23 02:33N 37°43' W 122°44'1211.8
2014-Apr-23 01:33N 37°49' W 122°30'9 8.8
2014-Apr-23 00:33N 37°48' W 122°19'1 1.1
2014-Apr-22 23:33N 37°48' W 122°18'0 0.0
2014-Apr-22 22:32N 37°48' W 122°18'0 0.0
2014-Apr-22 21:32N 37°48' W 122°18'0 0.0
2014-Apr-22 20:32N 37°48' W 122°18'0 0.0
2014-Apr-22 19:32N 37°48' W 122°18'0 0.0
2014-Apr-22 18:32N 37°48' W 122°18'0 0.0
2014-Apr-22 17:32N 37°48' W 122°18'0 0.0
2014-Apr-22 16:32N 37°48' W 122°18'0 0.0
2014-Apr-22 15:32N 37°48' W 122°18'0 0.0
2014-Apr-22 14:32N 37°48' W 122°18'0 0.0
2014-Apr-22 13:32N 37°48' W 122°18'0 0.0
2014-Apr-22 12:32N 37°48' W 122°18'0 0.0
2014-Apr-22 11:32N 37°48' W 122°18'0 0.0
2014-Apr-22 10:32N 37°48' W 122°18'0 0.0
2014-Apr-22 09:32N 37°48' W 122°18'0 0.0
2014-Apr-22 08:32N 37°48' W 122°18'0 0.0
2014-Apr-22 07:32N 37°48' W 122°18'0 0.0
2014-Apr-22 06:31N 37°48' W 122°18'0 0.0
2014-Apr-22 05:31N 37°48' W 122°18'0 0.0
2014-Apr-22 04:31N 37°48' W 122°18'0 0.0
2014-Apr-22 03:32N 37°48' W 122°18'0 0.0
2014-Apr-22 02:31N 37°48' W 122°18'0 0.0
2014-Apr-22 01:31N 37°48' W 122°18'0 0.4
2014-Apr-22 00:33N 37°48' W 122°18'4 4.4
2014-Apr-21 23:33N 37°48' W 122°23'1312.9
2014-Apr-21 22:33N 37°46' W 122°39'1414.5
2014-Apr-21 21:33N 37°51' W 122°57'1818.1
2014-Apr-21 20:33N 38°01' W 123°15'1818.5
2014-Apr-21 19:33N 38°13' W 123°34'1817.8
2014-Apr-21 18:33N 38°21' W 123°54'2019.6
2014-Apr-21 17:33N 38°32' W 124°15'2423.4
2014-Apr-21 16:33N 38°54' W 124°24'2423.3
2014-Apr-21 15:31N 39°17' W 124°34'54117.2
2014-Apr-20 08:04N 48°17' W 125°15'916.5
2014-Apr-20 07:33N 48°24' W 125°08'1515.1
2014-Apr-20 06:33N 48°30' W 124°47'2020.1
2014-Apr-20 05:33N 48°24' W 124°19'2221.5
2014-Apr-20 04:33N 48°16' W 123°48'1716.9
2014-Apr-20 03:32N 48°11' W 123°24'1212.1
2014-Apr-20 02:33N 48°13' W 123°06'1918.9
2014-Apr-20 01:32N 48°06' W 122°39'1919.6
2014-Apr-20 00:34N 47°49' W 122°27'1413.9
2014-Apr-19 23:33N 47°36' W 122°21'1 0.5
2014-Apr-19 22:29N 47°35' W 122°21'0 0.0
2014-Apr-19 21:32N 47°35' W 122°21'0 0.0
2014-Apr-19 20:32N 47°35' W 122°21'0 0.0
2014-Apr-19 19:32N 47°35' W 122°21'0 0.0
2014-Apr-19 18:29N 47°35' W 122°21'0 0.0
2014-Apr-19 17:32N 47°35' W 122°21'0 0.0
2014-Apr-19 16:32N 47°35' W 122°21'0 0.0
2014-Apr-19 15:32N 47°35' W 122°21'0 0.0
2014-Apr-19 14:32N 47°35' W 122°21'0 0.0
2014-Apr-19 13:32N 47°35' W 122°21'0 0.0
2014-Apr-19 12:32N 47°35' W 122°21'0 0.0
2014-Apr-19 11:26N 47°35' W 122°21'0 0.0
2014-Apr-19 10:32N 47°35' W 122°21'0 0.0
2014-Apr-19 09:32N 47°35' W 122°21'0 0.0
2014-Apr-19 08:26N 47°35' W 122°21'0 0.0
2014-Apr-19 07:32N 47°35' W 122°21'0 0.0
2014-Apr-19 06:32N 47°35' W 122°21'0 0.0
2014-Apr-19 05:33N 47°35' W 122°21'3 3.1
2014-Apr-19 04:33N 47°37' W 122°25'1616.0
2014-Apr-19 03:34N 47°52' W 122°29'2323.4
2014-Apr-19 02:33N 48°11' W 122°50'2019.9
2014-Apr-19 01:33N 48°11' W 123°20'1413.7
2014-Apr-19 00:34N 48°13' W 123°40'2323.1
2014-Apr-18 23:33N 48°19' W 124°14'2424.2
2014-Apr-18 22:33N 48°29' W 124°47'2322.8
2014-Apr-18 21:32N 48°22' W 125°21'  
2014-Apr-15 00:00N 22°30' W 156°30'   060 / 241020.510.8 2.023.915.125.6

Dump ship's entire track history

sailing weather and tide predictions

Manoa — KDBG — position and weather